sensor_id;sensor_type;location;lat;lon;timestamp;P1;durP1;ratioP1;P2;durP2;ratioP2
50769;SDS011;36740;48.698;11.472;2023-11-18T00:01:37;2.45;;;2.10;;
50769;SDS011;36740;48.698;11.472;2023-11-18T00:04:23;2.28;;;1.90;;
50769;SDS011;36740;48.698;11.472;2023-11-18T00:07:09;2.67;;;1.80;;
50769;SDS011;36740;48.698;11.472;2023-11-18T00:09:55;3.00;;;1.85;;
50769;SDS011;36740;48.698;11.472;2023-11-18T00:12:40;3.45;;;2.35;;
50769;SDS011;36740;48.698;11.472;2023-11-18T00:15:27;2.45;;;1.80;;
50769;SDS011;36740;48.698;11.472;2023-11-18T00:18:12;7.28;;;1.85;;
50769;SDS011;36740;48.698;11.472;2023-11-18T00:20:58;5.72;;;1.83;;
50769;SDS011;36740;48.698;11.472;2023-11-18T00:23:44;5.35;;;2.58;;
50769;SDS011;36740;48.698;11.472;2023-11-18T00:26:30;4.65;;;3.25;;
50769;SDS011;36740;48.698;11.472;2023-11-18T00:29:16;3.55;;;2.90;;
50769;SDS011;36740;48.698;11.472;2023-11-18T00:32:02;8.20;;;4.07;;
50769;SDS011;36740;48.698;11.472;2023-11-18T00:34:48;2.40;;;2.17;;
50769;SDS011;36740;48.698;11.472;2023-11-18T00:37:34;3.42;;;2.50;;
50769;SDS011;36740;48.698;11.472;2023-11-18T00:40:20;5.40;;;3.00;;
50769;SDS011;36740;48.698;11.472;2023-11-18T00:43:06;3.80;;;2.53;;
50769;SDS011;36740;48.698;11.472;2023-11-18T00:45:53;4.95;;;3.20;;
50769;SDS011;36740;48.698;11.472;2023-11-18T00:48:39;6.75;;;2.80;;
50769;SDS011;36740;48.698;11.472;2023-11-18T00:51:25;15.32;;;4.07;;
50769;SDS011;36740;48.698;11.472;2023-11-18T00:54:12;4.20;;;2.90;;
50769;SDS011;36740;48.698;11.472;2023-11-18T00:56:58;4.00;;;2.83;;
50769;SDS011;36740;48.698;11.472;2023-11-18T00:59:44;5.13;;;2.58;;
50769;SDS011;36740;48.698;11.472;2023-11-18T01:02:30;4.32;;;2.25;;
50769;SDS011;36740;48.698;11.472;2023-11-18T01:05:15;2.33;;;1.75;;
50769;SDS011;36740;48.698;11.472;2023-11-18T01:08:01;5.82;;;2.33;;
50769;SDS011;36740;48.698;11.472;2023-11-18T01:10:47;3.58;;;2.00;;
50769;SDS011;36740;48.698;11.472;2023-11-18T01:13:33;3.72;;;2.20;;
50769;SDS011;36740;48.698;11.472;2023-11-18T01:16:19;4.43;;;3.10;;
50769;SDS011;36740;48.698;11.472;2023-11-18T01:19:05;2.35;;;2.05;;
50769;SDS011;36740;48.698;11.472;2023-11-18T01:21:54;2.72;;;2.33;;
50769;SDS011;36740;48.698;11.472;2023-11-18T01:24:40;4.68;;;2.63;;
50769;SDS011;36740;48.698;11.472;2023-11-18T01:27:26;3.40;;;1.90;;
50769;SDS011;36740;48.698;11.472;2023-11-18T01:30:12;2.78;;;2.33;;
50769;SDS011;36740;48.698;11.472;2023-11-18T01:32:59;3.10;;;2.60;;
50769;SDS011;36740;48.698;11.472;2023-11-18T01:35:46;3.85;;;2.85;;
50769;SDS011;36740;48.698;11.472;2023-11-18T01:38:32;3.38;;;2.30;;
50769;SDS011;36740;48.698;11.472;2023-11-18T01:41:17;4.00;;;2.20;;
50769;SDS011;36740;48.698;11.472;2023-11-18T01:44:04;4.75;;;2.83;;
50769;SDS011;36740;48.698;11.472;2023-11-18T01:46:50;6.47;;;3.03;;
50769;SDS011;36740;48.698;11.472;2023-11-18T01:49:36;5.38;;;3.08;;
50769;SDS011;36740;48.698;11.472;2023-11-18T01:52:28;7.43;;;3.95;;
50769;SDS011;36740;48.698;11.472;2023-11-18T01:55:15;4.40;;;3.15;;
50769;SDS011;36740;48.698;11.472;2023-11-18T01:58:02;4.60;;;2.38;;
50769;SDS011;36740;48.698;11.472;2023-11-18T02:00:54;5.57;;;3.78;;
50769;SDS011;36740;48.698;11.472;2023-11-18T02:03:40;5.40;;;3.42;;
50769;SDS011;36740;48.698;11.472;2023-11-18T02:06:28;7.43;;;3.15;;
50769;SDS011;36740;48.698;11.472;2023-11-18T02:09:17;5.35;;;3.38;;
50769;SDS011;36740;48.698;11.472;2023-11-18T02:15:12;5.93;;;3.60;;
50769;SDS011;36740;48.698;11.472;2023-11-18T02:17:59;4.30;;;2.63;;
50769;SDS011;36740;48.698;11.472;2023-11-18T02:20:49;4.68;;;2.53;;
50769;SDS011;36740;48.698;11.472;2023-11-18T02:23:35;6.05;;;3.70;;
50769;SDS011;36740;48.698;11.472;2023-11-18T02:26:24;6.63;;;4.00;;
50769;SDS011;36740;48.698;11.472;2023-11-18T02:29:11;9.55;;;3.50;;
50769;SDS011;36740;48.698;11.472;2023-11-18T02:32:02;5.18;;;3.30;;
50769;SDS011;36740;48.698;11.472;2023-11-18T02:35:20;6.05;;;3.35;;
50769;SDS011;36740;48.698;11.472;2023-11-18T02:38:16;6.68;;;3.58;;
50769;SDS011;36740;48.698;11.472;2023-11-18T02:41:09;5.13;;;3.55;;
50769;SDS011;36740;48.698;11.472;2023-11-18T02:43:58;5.38;;;3.42;;
50769;SDS011;36740;48.698;11.472;2023-11-18T02:46:44;8.35;;;3.03;;
50769;SDS011;36740;48.698;11.472;2023-11-18T02:49:29;8.27;;;4.20;;
50769;SDS011;36740;48.698;11.472;2023-11-18T02:52:15;5.32;;;3.53;;
50769;SDS011;36740;48.698;11.472;2023-11-18T02:55:01;3.65;;;2.58;;
50769;SDS011;36740;48.698;11.472;2023-11-18T02:57:47;7.22;;;3.95;;
50769;SDS011;36740;48.698;11.472;2023-11-18T03:00:35;5.78;;;3.53;;
50769;SDS011;36740;48.698;11.472;2023-11-18T03:03:23;8.00;;;4.25;;
50769;SDS011;36740;48.698;11.472;2023-11-18T03:06:09;7.88;;;3.83;;
50769;SDS011;36740;48.698;11.472;2023-11-18T03:08:56;8.82;;;4.43;;
50769;SDS011;36740;48.698;11.472;2023-11-18T03:11:42;5.43;;;4.05;;
50769;SDS011;36740;48.698;11.472;2023-11-18T03:14:29;10.73;;;5.18;;
50769;SDS011;36740;48.698;11.472;2023-11-18T03:17:15;10.95;;;5.20;;
50769;SDS011;36740;48.698;11.472;2023-11-18T03:20:01;14.63;;;6.65;;
50769;SDS011;36740;48.698;11.472;2023-11-18T03:22:46;7.90;;;5.20;;
50769;SDS011;36740;48.698;11.472;2023-11-18T03:25:32;11.63;;;6.88;;
50769;SDS011;36740;48.698;11.472;2023-11-18T03:28:18;10.70;;;5.32;;
50769;SDS011;36740;48.698;11.472;2023-11-18T03:31:04;14.05;;;6.53;;
50769;SDS011;36740;48.698;11.472;2023-11-18T03:33:51;9.75;;;6.10;;
50769;SDS011;36740;48.698;11.472;2023-11-18T03:36:37;11.98;;;5.72;;
50769;SDS011;36740;48.698;11.472;2023-11-18T03:39:22;11.52;;;5.70;;
50769;SDS011;36740;48.698;11.472;2023-11-18T03:42:08;12.13;;;6.22;;
50769;SDS011;36740;48.698;11.472;2023-11-18T03:44:54;11.38;;;6.38;;
50769;SDS011;36740;48.698;11.472;2023-11-18T03:47:40;9.07;;;5.30;;
50769;SDS011;36740;48.698;11.472;2023-11-18T03:50:25;10.15;;;5.93;;
50769;SDS011;36740;48.698;11.472;2023-11-18T03:53:11;11.82;;;6.82;;
50769;SDS011;36740;48.698;11.472;2023-11-18T03:55:57;11.63;;;6.57;;
50769;SDS011;36740;48.698;11.472;2023-11-18T03:58:43;10.13;;;5.47;;
50769;SDS011;36740;48.698;11.472;2023-11-18T04:01:29;11.32;;;5.93;;
50769;SDS011;36740;48.698;11.472;2023-11-18T04:04:14;8.95;;;5.63;;
50769;SDS011;36740;48.698;11.472;2023-11-18T04:07:02;14.52;;;7.15;;
50769;SDS011;36740;48.698;11.472;2023-11-18T04:09:47;12.15;;;7.63;;
50769;SDS011;36740;48.698;11.472;2023-11-18T04:12:33;15.73;;;7.15;;
50769;SDS011;36740;48.698;11.472;2023-11-18T04:15:19;15.93;;;5.72;;
50769;SDS011;36740;48.698;11.472;2023-11-18T04:18:05;9.20;;;5.57;;
50769;SDS011;36740;48.698;11.472;2023-11-18T04:20:51;11.57;;;5.65;;
50769;SDS011;36740;48.698;11.472;2023-11-18T04:23:38;12.77;;;6.50;;
50769;SDS011;36740;48.698;11.472;2023-11-18T04:26:25;8.68;;;5.50;;
50769;SDS011;36740;48.698;11.472;2023-11-18T04:29:11;7.35;;;4.38;;
50769;SDS011;36740;48.698;11.472;2023-11-18T04:31:56;8.77;;;5.07;;
50769;SDS011;36740;48.698;11.472;2023-11-18T04:34:42;6.10;;;2.90;;
50769;SDS011;36740;48.698;11.472;2023-11-18T04:37:28;5.35;;;3.58;;
50769;SDS011;36740;48.698;11.472;2023-11-18T04:40:14;7.80;;;4.85;;
50769;SDS011;36740;48.698;11.472;2023-11-18T04:43:00;8.45;;;5.03;;
50769;SDS011;36740;48.698;11.472;2023-11-18T04:45:46;12.25;;;7.45;;
50769;SDS011;36740;48.698;11.472;2023-11-18T04:48:32;12.15;;;6.20;;
50769;SDS011;36740;48.698;11.472;2023-11-18T04:51:19;12.43;;;6.90;;
50769;SDS011;36740;48.698;11.472;2023-11-18T04:54:06;13.25;;;9.75;;
50769;SDS011;36740;48.698;11.472;2023-11-18T04:56:53;12.30;;;9.10;;
50769;SDS011;36740;48.698;11.472;2023-11-18T04:59:39;15.25;;;9.25;;
50769;SDS011;36740;48.698;11.472;2023-11-18T05:02:24;14.13;;;8.98;;
50769;SDS011;36740;48.698;11.472;2023-11-18T05:05:10;10.23;;;7.95;;
50769;SDS011;36740;48.698;11.472;2023-11-18T05:07:56;14.23;;;8.63;;
50769;SDS011;36740;48.698;11.472;2023-11-18T05:10:45;13.25;;;8.57;;
50769;SDS011;36740;48.698;11.472;2023-11-18T05:13:32;10.82;;;7.53;;
50769;SDS011;36740;48.698;11.472;2023-11-18T05:16:19;13.38;;;8.15;;
50769;SDS011;36740;48.698;11.472;2023-11-18T05:19:07;12.55;;;8.40;;
50769;SDS011;36740;48.698;11.472;2023-11-18T05:21:53;11.68;;;7.68;;
50769;SDS011;36740;48.698;11.472;2023-11-18T05:24:39;11.77;;;7.00;;
50769;SDS011;36740;48.698;11.472;2023-11-18T05:27:25;29.23;;;23.50;;
50769;SDS011;36740;48.698;11.472;2023-11-18T05:30:12;11.23;;;7.57;;
50769;SDS011;36740;48.698;11.472;2023-11-18T05:32:58;13.00;;;8.20;;
50769;SDS011;36740;48.698;11.472;2023-11-18T05:35:44;11.55;;;8.68;;
50769;SDS011;36740;48.698;11.472;2023-11-18T05:38:37;13.45;;;8.45;;
50769;SDS011;36740;48.698;11.472;2023-11-18T05:41:23;13.15;;;8.07;;
50769;SDS011;36740;48.698;11.472;2023-11-18T05:44:13;14.48;;;7.63;;
50769;SDS011;36740;48.698;11.472;2023-11-18T05:47:03;12.00;;;7.90;;
50769;SDS011;36740;48.698;11.472;2023-11-18T05:49:49;11.98;;;8.18;;
50769;SDS011;36740;48.698;11.472;2023-11-18T05:52:34;11.23;;;7.90;;
50769;SDS011;36740;48.698;11.472;2023-11-18T05:55:20;12.77;;;7.18;;
50769;SDS011;36740;48.698;11.472;2023-11-18T05:58:06;11.77;;;7.68;;
50769;SDS011;36740;48.698;11.472;2023-11-18T06:00:54;9.40;;;7.05;;
50769;SDS011;36740;48.698;11.472;2023-11-18T06:03:41;12.10;;;7.63;;
50769;SDS011;36740;48.698;11.472;2023-11-18T06:06:31;11.18;;;6.93;;
50769;SDS011;36740;48.698;11.472;2023-11-18T06:09:17;11.10;;;8.13;;
50769;SDS011;36740;48.698;11.472;2023-11-18T06:12:06;14.07;;;8.95;;
50769;SDS011;36740;48.698;11.472;2023-11-18T06:14:54;13.73;;;7.93;;
50769;SDS011;36740;48.698;11.472;2023-11-18T06:17:40;13.32;;;8.05;;
50769;SDS011;36740;48.698;11.472;2023-11-18T06:20:26;12.25;;;8.02;;
50769;SDS011;36740;48.698;11.472;2023-11-18T06:23:11;10.32;;;7.53;;
50769;SDS011;36740;48.698;11.472;2023-11-18T06:26:01;13.27;;;8.20;;
50769;SDS011;36740;48.698;11.472;2023-11-18T06:28:47;13.55;;;8.68;;
50769;SDS011;36740;48.698;11.472;2023-11-18T06:31:36;12.20;;;7.90;;
50769;SDS011;36740;48.698;11.472;2023-11-18T06:34:22;10.13;;;7.38;;
50769;SDS011;36740;48.698;11.472;2023-11-18T06:37:08;12.10;;;7.53;;
50769;SDS011;36740;48.698;11.472;2023-11-18T06:39:53;9.60;;;6.95;;
50769;SDS011;36740;48.698;11.472;2023-11-18T06:42:39;11.57;;;7.32;;
50769;SDS011;36740;48.698;11.472;2023-11-18T06:45:25;10.93;;;6.97;;
50769;SDS011;36740;48.698;11.472;2023-11-18T06:48:12;12.38;;;7.68;;
50769;SDS011;36740;48.698;11.472;2023-11-18T06:51:00;12.93;;;7.15;;
50769;SDS011;36740;48.698;11.472;2023-11-18T06:53:47;15.30;;;8.63;;
50769;SDS011;36740;48.698;11.472;2023-11-18T06:56:33;10.13;;;6.47;;
50769;SDS011;36740;48.698;11.472;2023-11-18T06:59:18;14.18;;;8.32;;
50769;SDS011;36740;48.698;11.472;2023-11-18T07:02:04;10.88;;;6.72;;
50769;SDS011;36740;48.698;11.472;2023-11-18T07:04:51;12.23;;;7.20;;
50769;SDS011;36740;48.698;11.472;2023-11-18T07:07:37;10.35;;;6.78;;
50769;SDS011;36740;48.698;11.472;2023-11-18T07:10:22;13.45;;;8.20;;
50769;SDS011;36740;48.698;11.472;2023-11-18T07:13:08;12.27;;;7.40;;
50769;SDS011;36740;48.698;11.472;2023-11-18T07:15:55;18.33;;;8.70;;
50769;SDS011;36740;48.698;11.472;2023-11-18T07:18:42;12.15;;;8.77;;
50769;SDS011;36740;48.698;11.472;2023-11-18T07:21:28;11.90;;;8.02;;
50769;SDS011;36740;48.698;11.472;2023-11-18T07:24:14;11.50;;;7.93;;
50769;SDS011;36740;48.698;11.472;2023-11-18T07:27:00;14.55;;;7.00;;
50769;SDS011;36740;48.698;11.472;2023-11-18T07:29:46;14.25;;;7.43;;
50769;SDS011;36740;48.698;11.472;2023-11-18T07:32:32;12.18;;;7.60;;
50769;SDS011;36740;48.698;11.472;2023-11-18T07:35:19;12.43;;;7.40;;
50769;SDS011;36740;48.698;11.472;2023-11-18T07:38:04;12.75;;;8.73;;
50769;SDS011;36740;48.698;11.472;2023-11-18T07:40:52;11.98;;;7.70;;
50769;SDS011;36740;48.698;11.472;2023-11-18T07:43:41;9.73;;;6.35;;
50769;SDS011;36740;48.698;11.472;2023-11-18T07:46:29;14.95;;;7.28;;
50769;SDS011;36740;48.698;11.472;2023-11-18T07:49:16;13.57;;;8.88;;
50769;SDS011;36740;48.698;11.472;2023-11-18T07:52:02;24.17;;;14.50;;
50769;SDS011;36740;48.698;11.472;2023-11-18T07:54:48;38.30;;;22.85;;
50769;SDS011;36740;48.698;11.472;2023-11-18T07:57:36;22.10;;;15.93;;
50769;SDS011;36740;48.698;11.472;2023-11-18T08:00:22;23.77;;;10.70;;
50769;SDS011;36740;48.698;11.472;2023-11-18T08:03:09;26.48;;;14.77;;
50769;SDS011;36740;48.698;11.472;2023-11-18T08:05:58;25.55;;;15.13;;
50769;SDS011;36740;48.698;11.472;2023-11-18T08:08:44;22.15;;;13.75;;
50769;SDS011;36740;48.698;11.472;2023-11-18T08:11:31;30.13;;;17.42;;
50769;SDS011;36740;48.698;11.472;2023-11-18T08:14:16;14.65;;;7.30;;
50769;SDS011;36740;48.698;11.472;2023-11-18T08:17:02;10.27;;;4.82;;
50769;SDS011;36740;48.698;11.472;2023-11-18T08:19:49;13.77;;;6.15;;
50769;SDS011;36740;48.698;11.472;2023-11-18T08:22:37;11.10;;;6.35;;
50769;SDS011;36740;48.698;11.472;2023-11-18T08:25:22;9.32;;;6.55;;
50769;SDS011;36740;48.698;11.472;2023-11-18T08:28:08;12.45;;;6.85;;
50769;SDS011;36740;48.698;11.472;2023-11-18T08:30:55;8.98;;;6.35;;
50769;SDS011;36740;48.698;11.472;2023-11-18T08:33:40;19.02;;;9.23;;
50769;SDS011;36740;48.698;11.472;2023-11-18T08:36:26;30.17;;;16.20;;
50769;SDS011;36740;48.698;11.472;2023-11-18T08:39:12;9.45;;;5.35;;
50769;SDS011;36740;48.698;11.472;2023-11-18T08:42:01;9.77;;;5.75;;
50769;SDS011;36740;48.698;11.472;2023-11-18T08:44:47;8.82;;;5.70;;
50769;SDS011;36740;48.698;11.472;2023-11-18T08:47:33;8.45;;;6.05;;
50769;SDS011;36740;48.698;11.472;2023-11-18T08:50:19;7.57;;;5.35;;
50769;SDS011;36740;48.698;11.472;2023-11-18T08:53:09;6.93;;;5.27;;
50769;SDS011;36740;48.698;11.472;2023-11-18T08:55:54;5.68;;;3.97;;
50769;SDS011;36740;48.698;11.472;2023-11-18T08:58:41;9.20;;;5.10;;
50769;SDS011;36740;48.698;11.472;2023-11-18T09:01:29;7.35;;;4.70;;
50769;SDS011;36740;48.698;11.472;2023-11-18T09:04:17;10.10;;;4.53;;
50769;SDS011;36740;48.698;11.472;2023-11-18T09:07:05;8.60;;;4.60;;
50769;SDS011;36740;48.698;11.472;2023-11-18T09:09:52;8.18;;;5.13;;
50769;SDS011;36740;48.698;11.472;2023-11-18T09:12:38;11.55;;;6.97;;
50769;SDS011;36740;48.698;11.472;2023-11-18T09:15:26;18.38;;;9.70;;
50769;SDS011;36740;48.698;11.472;2023-11-18T09:18:16;11.13;;;6.70;;
50769;SDS011;36740;48.698;11.472;2023-11-18T09:21:03;14.20;;;7.35;;
50769;SDS011;36740;48.698;11.472;2023-11-18T09:23:50;10.93;;;6.55;;
50769;SDS011;36740;48.698;11.472;2023-11-18T09:26:36;8.20;;;6.07;;
50769;SDS011;36740;48.698;11.472;2023-11-18T09:29:22;8.77;;;4.00;;
50769;SDS011;36740;48.698;11.472;2023-11-18T09:32:09;7.30;;;4.60;;
50769;SDS011;36740;48.698;11.472;2023-11-18T09:34:58;10.82;;;7.13;;
50769;SDS011;36740;48.698;11.472;2023-11-18T09:37:44;7.00;;;4.95;;
50769;SDS011;36740;48.698;11.472;2023-11-18T09:40:30;7.65;;;4.80;;
50769;SDS011;36740;48.698;11.472;2023-11-18T09:43:24;7.28;;;4.55;;
50769;SDS011;36740;48.698;11.472;2023-11-18T09:46:13;5.35;;;3.75;;
50769;SDS011;36740;48.698;11.472;2023-11-18T09:51:59;6.70;;;3.97;;
50769;SDS011;36740;48.698;11.472;2023-11-18T09:58:03;4.97;;;2.97;;
50769;SDS011;36740;48.698;11.472;2023-11-18T10:00:55;4.10;;;3.35;;
50769;SDS011;36740;48.698;11.472;2023-11-18T10:03:44;5.90;;;3.88;;
50769;SDS011;36740;48.698;11.472;2023-11-18T10:06:31;5.28;;;3.38;;
50769;SDS011;36740;48.698;11.472;2023-11-18T10:09:19;6.40;;;3.80;;
50769;SDS011;36740;48.698;11.472;2023-11-18T10:12:13;6.38;;;4.95;;
50769;SDS011;36740;48.698;11.472;2023-11-18T10:15:02;8.57;;;4.30;;
50769;SDS011;36740;48.698;11.472;2023-11-18T10:17:49;8.82;;;3.83;;
50769;SDS011;36740;48.698;11.472;2023-11-18T10:20:45;7.10;;;3.28;;
50769;SDS011;36740;48.698;11.472;2023-11-18T10:23:32;4.78;;;3.22;;
50769;SDS011;36740;48.698;11.472;2023-11-18T10:26:19;5.82;;;3.47;;
50769;SDS011;36740;48.698;11.472;2023-11-18T10:32:05;5.65;;;3.42;;
50769;SDS011;36740;48.698;11.472;2023-11-18T10:35:04;5.32;;;3.53;;
50769;SDS011;36740;48.698;11.472;2023-11-18T10:37:51;6.13;;;3.67;;
50769;SDS011;36740;48.698;11.472;2023-11-18T10:40:37;7.75;;;3.92;;
50769;SDS011;36740;48.698;11.472;2023-11-18T10:43:38;5.20;;;3.25;;
50769;SDS011;36740;48.698;11.472;2023-11-18T10:46:26;3.78;;;2.88;;
50769;SDS011;36740;48.698;11.472;2023-11-18T10:49:11;4.03;;;2.38;;
50769;SDS011;36740;48.698;11.472;2023-11-18T10:51:57;5.90;;;3.75;;
50769;SDS011;36740;48.698;11.472;2023-11-18T10:54:50;6.25;;;3.20;;
50769;SDS011;36740;48.698;11.472;2023-11-18T10:57:40;5.78;;;3.53;;
50769;SDS011;36740;48.698;11.472;2023-11-18T11:00:27;7.30;;;2.55;;
50769;SDS011;36740;48.698;11.472;2023-11-18T11:03:19;3.00;;;2.42;;
50769;SDS011;36740;48.698;11.472;2023-11-18T11:06:17;3.25;;;2.72;;
50769;SDS011;36740;48.698;11.472;2023-11-18T11:09:04;4.18;;;2.35;;
50769;SDS011;36740;48.698;11.472;2023-11-18T11:11:56;4.93;;;3.45;;
50769;SDS011;36740;48.698;11.472;2023-11-18T11:14:52;5.35;;;3.33;;
50769;SDS011;36740;48.698;11.472;2023-11-18T11:18:08;4.53;;;2.85;;
50769;SDS011;36740;48.698;11.472;2023-11-18T11:26:50;8.48;;;5.28;;
50769;SDS011;36740;48.698;11.472;2023-11-18T11:30:02;6.38;;;3.40;;
50769;SDS011;36740;48.698;11.472;2023-11-18T11:33:14;18.73;;;8.50;;
50769;SDS011;36740;48.698;11.472;2023-11-18T11:36:22;10.57;;;6.43;;
50769;SDS011;36740;48.698;11.472;2023-11-18T11:39:17;17.38;;;7.75;;
50769;SDS011;36740;48.698;11.472;2023-11-18T11:42:07;13.65;;;6.53;;
50769;SDS011;36740;48.698;11.472;2023-11-18T11:44:54;11.98;;;5.30;;
50769;SDS011;36740;48.698;11.472;2023-11-18T11:47:41;6.80;;;4.25;;
50769;SDS011;36740;48.698;11.472;2023-11-18T11:50:32;8.52;;;4.47;;
50769;SDS011;36740;48.698;11.472;2023-11-18T11:53:24;8.23;;;5.13;;
50769;SDS011;36740;48.698;11.472;2023-11-18T11:56:15;14.38;;;6.10;;
50769;SDS011;36740;48.698;11.472;2023-11-18T11:59:06;9.57;;;4.68;;
50769;SDS011;36740;48.698;11.472;2023-11-18T12:01:56;8.85;;;5.40;;
50769;SDS011;36740;48.698;11.472;2023-11-18T12:04:46;7.10;;;5.00;;
50769;SDS011;36740;48.698;11.472;2023-11-18T12:07:37;4.18;;;2.50;;
50769;SDS011;36740;48.698;11.472;2023-11-18T12:10:31;8.63;;;4.00;;
50769;SDS011;36740;48.698;11.472;2023-11-18T12:13:17;9.23;;;4.78;;
50769;SDS011;36740;48.698;11.472;2023-11-18T12:16:04;3.58;;;2.38;;
50769;SDS011;36740;48.698;11.472;2023-11-18T12:22:17;4.93;;;2.65;;
50769;SDS011;36740;48.698;11.472;2023-11-18T12:28:06;2.47;;;2.08;;
50769;SDS011;36740;48.698;11.472;2023-11-18T12:30:53;2.42;;;2.10;;
50769;SDS011;36740;48.698;11.472;2023-11-18T12:43:15;6.13;;;2.65;;
50769;SDS011;36740;48.698;11.472;2023-11-18T12:49:13;5.70;;;2.67;;
50769;SDS011;36740;48.698;11.472;2023-11-18T12:52:02;3.92;;;2.10;;
50769;SDS011;36740;48.698;11.472;2023-11-18T12:54:53;19.05;;;2.67;;
50769;SDS011;36740;48.698;11.472;2023-11-18T12:57:45;1.80;;;1.65;;
50769;SDS011;36740;48.698;11.472;2023-11-18T13:00:34;3.70;;;2.17;;
50769;SDS011;36740;48.698;11.472;2023-11-18T13:03:22;3.22;;;2.67;;
50769;SDS011;36740;48.698;11.472;2023-11-18T13:06:08;3.08;;;2.40;;
50769;SDS011;36740;48.698;11.472;2023-11-18T13:08:56;11.52;;;4.75;;
50769;SDS011;36740;48.698;11.472;2023-11-18T13:11:43;7.88;;;3.25;;
50769;SDS011;36740;48.698;11.472;2023-11-18T13:14:31;3.13;;;2.80;;
50769;SDS011;36740;48.698;11.472;2023-11-18T13:17:21;3.90;;;2.95;;
50769;SDS011;36740;48.698;11.472;2023-11-18T13:20:14;4.20;;;2.85;;
50769;SDS011;36740;48.698;11.472;2023-11-18T13:23:00;5.97;;;3.33;;
50769;SDS011;36740;48.698;11.472;2023-11-18T13:25:46;6.03;;;3.97;;
50769;SDS011;36740;48.698;11.472;2023-11-18T13:28:32;4.43;;;3.67;;
50769;SDS011;36740;48.698;11.472;2023-11-18T13:31:18;7.05;;;3.67;;
50769;SDS011;36740;48.698;11.472;2023-11-18T13:34:04;4.82;;;3.67;;
50769;SDS011;36740;48.698;11.472;2023-11-18T13:36:52;4.20;;;3.08;;
50769;SDS011;36740;48.698;11.472;2023-11-18T13:39:38;8.40;;;3.63;;
50769;SDS011;36740;48.698;11.472;2023-11-18T13:42:24;6.68;;;3.60;;
50769;SDS011;36740;48.698;11.472;2023-11-18T13:45:13;4.30;;;3.25;;
50769;SDS011;36740;48.698;11.472;2023-11-18T13:48:05;7.72;;;2.95;;
50769;SDS011;36740;48.698;11.472;2023-11-18T13:50:53;6.53;;;3.35;;
50769;SDS011;36740;48.698;11.472;2023-11-18T13:53:40;7.90;;;4.55;;
50769;SDS011;36740;48.698;11.472;2023-11-18T13:56:27;7.18;;;3.63;;
50769;SDS011;36740;48.698;11.472;2023-11-18T13:59:14;7.88;;;3.08;;
50769;SDS011;36740;48.698;11.472;2023-11-18T14:02:00;9.00;;;5.43;;
50769;SDS011;36740;48.698;11.472;2023-11-18T14:04:47;2.67;;;2.00;;
50769;SDS011;36740;48.698;11.472;2023-11-18T14:07:37;15.48;;;5.68;;
50769;SDS011;36740;48.698;11.472;2023-11-18T14:10:24;49.80;;;25.05;;
50769;SDS011;36740;48.698;11.472;2023-11-18T14:13:10;16.13;;;10.65;;
50769;SDS011;36740;48.698;11.472;2023-11-18T14:16:02;9.43;;;6.00;;
50769;SDS011;36740;48.698;11.472;2023-11-18T14:18:49;4.13;;;3.35;;
50769;SDS011;36740;48.698;11.472;2023-11-18T14:21:35;6.57;;;4.35;;
50769;SDS011;36740;48.698;11.472;2023-11-18T14:24:21;5.13;;;3.53;;
50769;SDS011;36740;48.698;11.472;2023-11-18T14:27:13;5.50;;;4.18;;
50769;SDS011;36740;48.698;11.472;2023-11-18T14:29:59;9.43;;;3.65;;
50769;SDS011;36740;48.698;11.472;2023-11-18T14:32:45;5.85;;;3.63;;
50769;SDS011;36740;48.698;11.472;2023-11-18T14:35:32;6.40;;;3.83;;
50769;SDS011;36740;48.698;11.472;2023-11-18T14:38:19;4.25;;;3.35;;
50769;SDS011;36740;48.698;11.472;2023-11-18T14:41:05;9.00;;;2.90;;
50769;SDS011;36740;48.698;11.472;2023-11-18T14:43:51;5.03;;;3.47;;
50769;SDS011;36740;48.698;11.472;2023-11-18T14:46:37;5.25;;;3.55;;
50769;SDS011;36740;48.698;11.472;2023-11-18T14:49:26;6.78;;;4.18;;
50769;SDS011;36740;48.698;11.472;2023-11-18T14:52:12;6.70;;;4.20;;
50769;SDS011;36740;48.698;11.472;2023-11-18T14:54:57;6.05;;;3.88;;
50769;SDS011;36740;48.698;11.472;2023-11-18T14:57:44;4.82;;;3.05;;
50769;SDS011;36740;48.698;11.472;2023-11-18T15:00:30;21.30;;;11.43;;
50769;SDS011;36740;48.698;11.472;2023-11-18T15:03:18;5.50;;;3.35;;
50769;SDS011;36740;48.698;11.472;2023-11-18T15:06:04;6.28;;;3.13;;
50769;SDS011;36740;48.698;11.472;2023-11-18T15:08:51;10.25;;;3.75;;
50769;SDS011;36740;48.698;11.472;2023-11-18T15:11:38;3.83;;;2.53;;
50769;SDS011;36740;48.698;11.472;2023-11-18T15:14:24;6.82;;;3.63;;
50769;SDS011;36740;48.698;11.472;2023-11-18T15:17:12;9.55;;;5.82;;
50769;SDS011;36740;48.698;11.472;2023-11-18T15:19:59;13.65;;;6.60;;
50769;SDS011;36740;48.698;11.472;2023-11-18T15:22:45;4.70;;;2.72;;
50769;SDS011;36740;48.698;11.472;2023-11-18T15:25:31;4.97;;;2.50;;
50769;SDS011;36740;48.698;11.472;2023-11-18T15:28:17;7.20;;;4.20;;
50769;SDS011;36740;48.698;11.472;2023-11-18T15:31:04;5.25;;;3.10;;
50769;SDS011;36740;48.698;11.472;2023-11-18T15:33:50;5.93;;;2.95;;
50769;SDS011;36740;48.698;11.472;2023-11-18T15:36:40;6.97;;;3.33;;
50769;SDS011;36740;48.698;11.472;2023-11-18T15:39:28;6.80;;;3.53;;
50769;SDS011;36740;48.698;11.472;2023-11-18T15:42:13;4.75;;;3.15;;
50769;SDS011;36740;48.698;11.472;2023-11-18T15:44:59;3.25;;;2.95;;
50769;SDS011;36740;48.698;11.472;2023-11-18T15:47:46;8.10;;;4.03;;
50769;SDS011;36740;48.698;11.472;2023-11-18T15:50:33;5.80;;;3.25;;
50769;SDS011;36740;48.698;11.472;2023-11-18T15:53:22;7.38;;;4.97;;
50769;SDS011;36740;48.698;11.472;2023-11-18T15:56:08;5.13;;;3.80;;
50769;SDS011;36740;48.698;11.472;2023-11-18T15:58:54;3.78;;;3.05;;
50769;SDS011;36740;48.698;11.472;2023-11-18T16:01:40;6.80;;;3.53;;
50769;SDS011;36740;48.698;11.472;2023-11-18T16:04:26;7.97;;;4.47;;
50769;SDS011;36740;48.698;11.472;2023-11-18T16:07:11;8.38;;;3.50;;
50769;SDS011;36740;48.698;11.472;2023-11-18T16:09:57;6.00;;;3.22;;
50769;SDS011;36740;48.698;11.472;2023-11-18T16:12:45;5.10;;;3.17;;
50769;SDS011;36740;48.698;11.472;2023-11-18T16:15:33;3.83;;;3.15;;
50769;SDS011;36740;48.698;11.472;2023-11-18T16:18:19;5.50;;;3.85;;
50769;SDS011;36740;48.698;11.472;2023-11-18T16:21:06;3.58;;;2.65;;
50769;SDS011;36740;48.698;11.472;2023-11-18T16:23:52;6.25;;;3.60;;
50769;SDS011;36740;48.698;11.472;2023-11-18T16:26:38;8.43;;;3.95;;
50769;SDS011;36740;48.698;11.472;2023-11-18T16:29:25;9.18;;;4.57;;
50769;SDS011;36740;48.698;11.472;2023-11-18T16:32:11;4.80;;;3.15;;
50769;SDS011;36740;48.698;11.472;2023-11-18T16:34:57;3.42;;;2.78;;
50769;SDS011;36740;48.698;11.472;2023-11-18T16:37:43;4.10;;;3.70;;
50769;SDS011;36740;48.698;11.472;2023-11-18T16:40:29;3.47;;;2.80;;
50769;SDS011;36740;48.698;11.472;2023-11-18T16:43:15;6.88;;;3.17;;
50769;SDS011;36740;48.698;11.472;2023-11-18T16:46:00;6.07;;;3.35;;
50769;SDS011;36740;48.698;11.472;2023-11-18T16:48:46;3.03;;;2.20;;
50769;SDS011;36740;48.698;11.472;2023-11-18T16:51:32;2.67;;;1.95;;
50769;SDS011;36740;48.698;11.472;2023-11-18T16:54:19;2.38;;;2.17;;
50769;SDS011;36740;48.698;11.472;2023-11-18T16:57:06;2.80;;;1.80;;
50769;SDS011;36740;48.698;11.472;2023-11-18T16:59:54;3.90;;;2.15;;
50769;SDS011;36740;48.698;11.472;2023-11-18T17:02:43;5.30;;;2.65;;
50769;SDS011;36740;48.698;11.472;2023-11-18T17:05:30;3.05;;;2.38;;